sensor_id;sensor_type;location;lat;lon;timestamp;temperature;humidity
44461;DHT22;30162;53.642;10.640;2022-09-09T00:04:27;19.20;94.60
44461;DHT22;30162;53.642;10.640;2022-09-09T00:06:59;19.20;94.30
44461;DHT22;30162;53.642;10.640;2022-09-09T00:09:28;19.20;94.50
44461;DHT22;30162;53.642;10.640;2022-09-09T00:12:13;19.20;94.30
44461;DHT22;30162;53.642;10.640;2022-09-09T00:17:14;19.20;94.60
44461;DHT22;30162;53.642;10.640;2022-09-09T00:27:01;19.20;94.60
44461;DHT22;30162;53.642;10.640;2022-09-09T00:29:39;19.30;94.40
44461;DHT22;30162;53.642;10.640;2022-09-09T00:32:16;19.20;94.60
44461;DHT22;30162;53.642;10.640;2022-09-09T00:34:55;19.20;94.70
44461;DHT22;30162;53.642;10.640;2022-09-09T00:37:22;19.10;94.70
44461;DHT22;30162;53.642;10.640;2022-09-09T00:39:50;19.00;94.80
44461;DHT22;30162;53.642;10.640;2022-09-09T00:42:24;19.00;94.90
44461;DHT22;30162;53.642;10.640;2022-09-09T00:44:51;18.80;94.80
44461;DHT22;30162;53.642;10.640;2022-09-09T00:47:20;18.90;95.20
44461;DHT22;30162;53.642;10.640;2022-09-09T00:50:02;19.00;94.90
44461;DHT22;30162;53.642;10.640;2022-09-09T00:57:23;19.20;94.50
44461;DHT22;30162;53.642;10.640;2022-09-09T00:59:51;19.20;94.50
44461;DHT22;30162;53.642;10.640;2022-09-09T01:04:47;19.10;94.60
44461;DHT22;30162;53.642;10.640;2022-09-09T01:07:16;19.10;94.80
44461;DHT22;30162;53.642;10.640;2022-09-09T01:14:42;18.90;94.90
44461;DHT22;30162;53.642;10.640;2022-09-09T01:25:07;18.90;95.00
44461;DHT22;30162;53.642;10.640;2022-09-09T01:27:37;19.00;94.70
44461;DHT22;30162;53.642;10.640;2022-09-09T01:30:08;18.90;94.70
44461;DHT22;30162;53.642;10.640;2022-09-09T01:32:38;19.00;95.00
44461;DHT22;30162;53.642;10.640;2022-09-09T01:35:05;19.00;94.90
44461;DHT22;30162;53.642;10.640;2022-09-09T01:37:32;18.90;95.00
44461;DHT22;30162;53.642;10.640;2022-09-09T01:39:57;19.10;95.00
44461;DHT22;30162;53.642;10.640;2022-09-09T01:42:23;19.20;94.80
44461;DHT22;30162;53.642;10.640;2022-09-09T01:44:48;19.20;94.60
44461;DHT22;30162;53.642;10.640;2022-09-09T01:47:14;19.20;94.50
44461;DHT22;30162;53.642;10.640;2022-09-09T01:49:40;19.10;94.40
44461;DHT22;30162;53.642;10.640;2022-09-09T01:52:05;19.10;94.70
44461;DHT22;30162;53.642;10.640;2022-09-09T01:54:31;19.10;94.70
44461;DHT22;30162;53.642;10.640;2022-09-09T01:57:02;19.10;94.70
44461;DHT22;30162;53.642;10.640;2022-09-09T02:04:48;19.00;94.80
44461;DHT22;30162;53.642;10.640;2022-09-09T02:07:19;18.90;94.90
44461;DHT22;30162;53.642;10.640;2022-09-09T02:09:50;19.00;94.90
44461;DHT22;30162;53.642;10.640;2022-09-09T02:12:17;19.00;94.50
44461;DHT22;30162;53.642;10.640;2022-09-09T02:14:47;19.00;94.80
44461;DHT22;30162;53.642;10.640;2022-09-09T02:17:15;19.00;94.80
44461;DHT22;30162;53.642;10.640;2022-09-09T02:19:45;19.00;94.80
44461;DHT22;30162;53.642;10.640;2022-09-09T02:22:11;19.00;94.70
44461;DHT22;30162;53.642;10.640;2022-09-09T02:24:38;19.10;94.60
44461;DHT22;30162;53.642;10.640;2022-09-09T02:27:04;19.10;94.30
44461;DHT22;30162;53.642;10.640;2022-09-09T02:29:33;19.00;94.70
44461;DHT22;30162;53.642;10.640;2022-09-09T02:32:00;19.10;94.60
44461;DHT22;30162;53.642;10.640;2022-09-09T02:34:28;19.10;94.50
44461;DHT22;30162;53.642;10.640;2022-09-09T02:36:55;19.00;94.70
44461;DHT22;30162;53.642;10.640;2022-09-09T02:39:22;19.00;94.70
44461;DHT22;30162;53.642;10.640;2022-09-09T02:41:47;18.80;94.90
44461;DHT22;30162;53.642;10.640;2022-09-09T02:44:14;18.90;95.00
44461;DHT22;30162;53.642;10.640;2022-09-09T02:47:00;19.10;94.70
44461;DHT22;30162;53.642;10.640;2022-09-09T02:52:15;18.90;95.00
44461;DHT22;30162;53.642;10.640;2022-09-09T02:54:43;18.90;94.60
44461;DHT22;30162;53.642;10.640;2022-09-09T02:57:25;19.00;94.60
44461;DHT22;30162;53.642;10.640;2022-09-09T02:59:53;18.90;94.50
44461;DHT22;30162;53.642;10.640;2022-09-09T03:02:18;19.00;94.50
44461;DHT22;30162;53.642;10.640;2022-09-09T03:04:44;18.70;94.50
44461;DHT22;30162;53.642;10.640;2022-09-09T03:07:10;18.70;95.00
44461;DHT22;30162;53.642;10.640;2022-09-09T03:09:36;18.70;94.70
44461;DHT22;30162;53.642;10.640;2022-09-09T03:12:01;18.70;94.80
44461;DHT22;30162;53.642;10.640;2022-09-09T03:14:27;18.70;94.70
44461;DHT22;30162;53.642;10.640;2022-09-09T03:16:53;18.80;94.70
44461;DHT22;30162;53.642;10.640;2022-09-09T03:19:19;18.80;94.70
44461;DHT22;30162;53.642;10.640;2022-09-09T03:21:45;18.80;94.60
44461;DHT22;30162;53.642;10.640;2022-09-09T03:24:11;18.80;94.70
44461;DHT22;30162;53.642;10.640;2022-09-09T03:26:36;18.90;94.80
44461;DHT22;30162;53.642;10.640;2022-09-09T03:29:03;18.90;94.50
44461;DHT22;30162;53.642;10.640;2022-09-09T03:31:32;18.50;95.30
44461;DHT22;30162;53.642;10.640;2022-09-09T03:33:57;18.60;95.20
44461;DHT22;30162;53.642;10.640;2022-09-09T03:36:23;18.80;95.10
44461;DHT22;30162;53.642;10.640;2022-09-09T03:38:49;18.80;94.90
44461;DHT22;30162;53.642;10.640;2022-09-09T03:41:15;18.80;94.90
44461;DHT22;30162;53.642;10.640;2022-09-09T03:43:41;18.80;95.00
44461;DHT22;30162;53.642;10.640;2022-09-09T03:46:07;18.70;94.90
44461;DHT22;30162;53.642;10.640;2022-09-09T03:48:32;18.80;94.70
44461;DHT22;30162;53.642;10.640;2022-09-09T03:50:58;18.60;94.80
44461;DHT22;30162;53.642;10.640;2022-09-09T03:53:25;18.80;94.80
44461;DHT22;30162;53.642;10.640;2022-09-09T03:55:52;18.90;94.60
44461;DHT22;30162;53.642;10.640;2022-09-09T03:58:20;18.80;94.60
44461;DHT22;30162;53.642;10.640;2022-09-09T04:00:53;18.70;94.90
44461;DHT22;30162;53.642;10.640;2022-09-09T04:03:18;18.60;94.70
44461;DHT22;30162;53.642;10.640;2022-09-09T04:05:43;18.70;94.80
44461;DHT22;30162;53.642;10.640;2022-09-09T04:08:09;18.80;94.60
44461;DHT22;30162;53.642;10.640;2022-09-09T04:10:35;18.80;94.30
44461;DHT22;30162;53.642;10.640;2022-09-09T04:13:04;18.80;94.60
44461;DHT22;30162;53.642;10.640;2022-09-09T04:15:29;18.80;94.60
44461;DHT22;30162;53.642;10.640;2022-09-09T04:17:55;18.80;94.50
44461;DHT22;30162;53.642;10.640;2022-09-09T04:20:21;18.80;94.60
44461;DHT22;30162;53.642;10.640;2022-09-09T04:22:47;18.90;94.40
44461;DHT22;30162;53.642;10.640;2022-09-09T04:25:12;18.80;94.50
44461;DHT22;30162;53.642;10.640;2022-09-09T04:27:38;18.80;94.40
44461;DHT22;30162;53.642;10.640;2022-09-09T04:30:03;18.80;94.10
44461;DHT22;30162;53.642;10.640;2022-09-09T04:32:29;18.70;94.30
44461;DHT22;30162;53.642;10.640;2022-09-09T04:34:57;18.80;94.50
44461;DHT22;30162;53.642;10.640;2022-09-09T04:37:22;18.60;94.30
44461;DHT22;30162;53.642;10.640;2022-09-09T04:39:50;18.50;94.70
44461;DHT22;30162;53.642;10.640;2022-09-09T04:42:15;18.60;94.70
44461;DHT22;30162;53.642;10.640;2022-09-09T04:44:43;18.70;94.40
44461;DHT22;30162;53.642;10.640;2022-09-09T04:47:09;18.60;94.40
44461;DHT22;30162;53.642;10.640;2022-09-09T04:49:34;18.70;94.30
44461;DHT22;30162;53.642;10.640;2022-09-09T04:52:01;18.40;94.30
44461;DHT22;30162;53.642;10.640;2022-09-09T04:54:27;18.30;94.70
44461;DHT22;30162;53.642;10.640;2022-09-09T04:56:53;18.50;94.60
44461;DHT22;30162;53.642;10.640;2022-09-09T04:59:20;18.50;94.40
44461;DHT22;30162;53.642;10.640;2022-09-09T05:01:45;18.50;94.50
44461;DHT22;30162;53.642;10.640;2022-09-09T05:04:11;18.20;95.00
44461;DHT22;30162;53.642;10.640;2022-09-09T05:06:36;18.40;95.00
44461;DHT22;30162;53.642;10.640;2022-09-09T05:09:02;18.40;94.60
44461;DHT22;30162;53.642;10.640;2022-09-09T05:11:28;18.20;94.70
44461;DHT22;30162;53.642;10.640;2022-09-09T05:13:55;18.40;95.10
44461;DHT22;30162;53.642;10.640;2022-09-09T05:16:21;18.20;94.70
44461;DHT22;30162;53.642;10.640;2022-09-09T05:18:47;18.00;95.20
44461;DHT22;30162;53.642;10.640;2022-09-09T05:21:14;18.10;95.60
44461;DHT22;30162;53.642;10.640;2022-09-09T05:23:40;17.90;95.50
44461;DHT22;30162;53.642;10.640;2022-09-09T05:26:06;18.00;95.80
44461;DHT22;30162;53.642;10.640;2022-09-09T05:28:35;18.30;95.30
44461;DHT22;30162;53.642;10.640;2022-09-09T05:31:02;18.30;94.90
44461;DHT22;30162;53.642;10.640;2022-09-09T05:33:31;18.40;95.00
44461;DHT22;30162;53.642;10.640;2022-09-09T05:36:16;18.40;95.20
44461;DHT22;30162;53.642;10.640;2022-09-09T05:38:42;18.30;94.90
44461;DHT22;30162;53.642;10.640;2022-09-09T05:41:07;18.30;94.80
44461;DHT22;30162;53.642;10.640;2022-09-09T05:43:33;18.40;95.30
44461;DHT22;30162;53.642;10.640;2022-09-09T05:46:07;18.40;95.20
44461;DHT22;30162;53.642;10.640;2022-09-09T05:48:34;18.50;95.00
44461;DHT22;30162;53.642;10.640;2022-09-09T05:51:00;18.60;95.10
44461;DHT22;30162;53.642;10.640;2022-09-09T05:53:26;18.70;94.90
44461;DHT22;30162;53.642;10.640;2022-09-09T05:56:01;18.50;94.70
44461;DHT22;30162;53.642;10.640;2022-09-09T05:58:32;18.40;94.80
44461;DHT22;30162;53.642;10.640;2022-09-09T06:03:52;18.60;95.00
44461;DHT22;30162;53.642;10.640;2022-09-09T06:06:22;18.60;94.80
44461;DHT22;30162;53.642;10.640;2022-09-09T06:08:49;18.60;94.60
44461;DHT22;30162;53.642;10.640;2022-09-09T06:11:23;18.80;94.90
44461;DHT22;30162;53.642;10.640;2022-09-09T06:13:49;19.00;94.60
44461;DHT22;30162;53.642;10.640;2022-09-09T06:16:16;19.10;94.20
44461;DHT22;30162;53.642;10.640;2022-09-09T06:18:42;18.90;94.10
44461;DHT22;30162;53.642;10.640;2022-09-09T06:21:12;18.80;94.10
44461;DHT22;30162;53.642;10.640;2022-09-09T06:23:39;19.00;94.20
44461;DHT22;30162;53.642;10.640;2022-09-09T06:28:31;19.00;94.40
44461;DHT22;30162;53.642;10.640;2022-09-09T06:30:57;19.20;94.30
44461;DHT22;30162;53.642;10.640;2022-09-09T06:33:23;19.30;94.00
44461;DHT22;30162;53.642;10.640;2022-09-09T06:35:52;19.20;93.90
44461;DHT22;30162;53.642;10.640;2022-09-09T06:38:18;19.00;94.00
44461;DHT22;30162;53.642;10.640;2022-09-09T06:40:50;18.80;94.00
44461;DHT22;30162;53.642;10.640;2022-09-09T06:43:16;18.60;94.50
44461;DHT22;30162;53.642;10.640;2022-09-09T06:45:42;18.80;94.70
44461;DHT22;30162;53.642;10.640;2022-09-09T06:48:07;18.80;94.70
44461;DHT22;30162;53.642;10.640;2022-09-09T06:50:34;19.10;94.70
44461;DHT22;30162;53.642;10.640;2022-09-09T06:52:59;19.20;94.00
44461;DHT22;30162;53.642;10.640;2022-09-09T06:55:25;19.10;94.00
44461;DHT22;30162;53.642;10.640;2022-09-09T06:57:50;19.30;94.10
44461;DHT22;30162;53.642;10.640;2022-09-09T07:00:17;19.40;94.10
44461;DHT22;30162;53.642;10.640;2022-09-09T07:02:43;19.20;93.90
44461;DHT22;30162;53.642;10.640;2022-09-09T07:05:09;19.40;93.80
44461;DHT22;30162;53.642;10.640;2022-09-09T07:07:35;19.40;94.10
44461;DHT22;30162;53.642;10.640;2022-09-09T07:10:00;19.70;93.80
44461;DHT22;30162;53.642;10.640;2022-09-09T07:12:26;19.30;93.50
44461;DHT22;30162;53.642;10.640;2022-09-09T07:14:51;19.40;94.10
44461;DHT22;30162;53.642;10.640;2022-09-09T07:17:16;19.60;94.20
44461;DHT22;30162;53.642;10.640;2022-09-09T07:19:42;19.70;93.80
44461;DHT22;30162;53.642;10.640;2022-09-09T07:22:08;19.40;93.70
44461;DHT22;30162;53.642;10.640;2022-09-09T07:24:35;19.40;94.20
44461;DHT22;30162;53.642;10.640;2022-09-09T07:27:01;19.60;94.50
44461;DHT22;30162;53.642;10.640;2022-09-09T07:29:28;19.70;94.10
44461;DHT22;30162;53.642;10.640;2022-09-09T07:31:53;19.80;93.90
44461;DHT22;30162;53.642;10.640;2022-09-09T07:34:19;19.70;93.70
44461;DHT22;30162;53.642;10.640;2022-09-09T07:36:44;19.70;93.90
44461;DHT22;30162;53.642;10.640;2022-09-09T07:39:12;19.80;93.80
44461;DHT22;30162;53.642;10.640;2022-09-09T07:41:42;19.90;93.40
44461;DHT22;30162;53.642;10.640;2022-09-09T07:44:08;19.80;93.50
44461;DHT22;30162;53.642;10.640;2022-09-09T07:46:34;19.90;93.40
44461;DHT22;30162;53.642;10.640;2022-09-09T07:49:00;19.90;93.60
44461;DHT22;30162;53.642;10.640;2022-09-09T07:51:29;20.00;93.40
44461;DHT22;30162;53.642;10.640;2022-09-09T07:53:56;19.90;93.50
44461;DHT22;30162;53.642;10.640;2022-09-09T07:56:26;20.10;93.80
44461;DHT22;30162;53.642;10.640;2022-09-09T07:58:52;20.50;93.50
44461;DHT22;30162;53.642;10.640;2022-09-09T08:01:20;20.70;92.90
44461;DHT22;30162;53.642;10.640;2022-09-09T08:03:46;20.50;92.10
44461;DHT22;30162;53.642;10.640;2022-09-09T08:06:12;20.50;92.70
44461;DHT22;30162;53.642;10.640;2022-09-09T08:08:39;20.50;93.20
44461;DHT22;30162;53.642;10.640;2022-09-09T08:11:07;20.90;92.90
44461;DHT22;30162;53.642;10.640;2022-09-09T08:13:37;21.00;92.50
44461;DHT22;30162;53.642;10.640;2022-09-09T08:16:06;20.90;92.30
44461;DHT22;30162;53.642;10.640;2022-09-09T08:18:32;21.10;92.20
44461;DHT22;30162;53.642;10.640;2022-09-09T08:20:58;21.20;92.30
44461;DHT22;30162;53.642;10.640;2022-09-09T08:23:29;21.00;92.00
44461;DHT22;30162;53.642;10.640;2022-09-09T08:25:54;20.90;92.50
44461;DHT22;30162;53.642;10.640;2022-09-09T08:28:20;21.30;92.20
44461;DHT22;30162;53.642;10.640;2022-09-09T08:30:45;21.30;91.80
44461;DHT22;30162;53.642;10.640;2022-09-09T08:33:11;21.60;92.10
44461;DHT22;30162;53.642;10.640;2022-09-09T08:35:36;21.60;92.30
44461;DHT22;30162;53.642;10.640;2022-09-09T08:38:02;21.60;91.60
44461;DHT22;30162;53.642;10.640;2022-09-09T08:40:28;22.10;91.30
44461;DHT22;30162;53.642;10.640;2022-09-09T08:42:55;22.20;91.40
44461;DHT22;30162;53.642;10.640;2022-09-09T08:45:24;22.60;90.80
44461;DHT22;30162;53.642;10.640;2022-09-09T08:50:22;22.70;89.90
44461;DHT22;30162;53.642;10.640;2022-09-09T08:53:03;22.40;90.40
44461;DHT22;30162;53.642;10.640;2022-09-09T08:55:44;21.70;91.00
44461;DHT22;30162;53.642;10.640;2022-09-09T08:58:28;21.60;90.80
44461;DHT22;30162;53.642;10.640;2022-09-09T09:05:52;21.30;91.90
44461;DHT22;30162;53.642;10.640;2022-09-09T09:08:37;21.20;91.80
44461;DHT22;30162;53.642;10.640;2022-09-09T09:11:06;21.00;91.70
44461;DHT22;30162;53.642;10.640;2022-09-09T09:13:45;21.20;92.40
44461;DHT22;30162;53.642;10.640;2022-09-09T09:16:17;21.60;92.50
44461;DHT22;30162;53.642;10.640;2022-09-09T09:18:44;21.70;92.20
44461;DHT22;30162;53.642;10.640;2022-09-09T09:21:12;21.80;91.60
44461;DHT22;30162;53.642;10.640;2022-09-09T09:23:55;21.60;91.70
44461;DHT22;30162;53.642;10.640;2022-09-09T09:26:22;21.40;92.20
44461;DHT22;30162;53.642;10.640;2022-09-09T09:28:48;21.40;91.70
44461;DHT22;30162;53.642;10.640;2022-09-09T09:31:14;21.40;92.40
44461;DHT22;30162;53.642;10.640;2022-09-09T09:33:47;21.30;91.90
44461;DHT22;30162;53.642;10.640;2022-09-09T09:36:14;21.50;92.00
44461;DHT22;30162;53.642;10.640;2022-09-09T09:38:52;21.50;92.20
44461;DHT22;30162;53.642;10.640;2022-09-09T09:41:23;21.60;91.90
44461;DHT22;30162;53.642;10.640;2022-09-09T09:43:54;21.40;91.90
44461;DHT22;30162;53.642;10.640;2022-09-09T09:46:20;21.40;92.20
44461;DHT22;30162;53.642;10.640;2022-09-09T09:49:01;21.00;91.90
44461;DHT22;30162;53.642;10.640;2022-09-09T09:51:28;21.00;91.90
44461;DHT22;30162;53.642;10.640;2022-09-09T09:53:54;21.10;92.20
44461;DHT22;30162;53.642;10.640;2022-09-09T09:56:29;21.20;92.60
44461;DHT22;30162;53.642;10.640;2022-09-09T09:58:54;21.40;92.70
44461;DHT22;30162;53.642;10.640;2022-09-09T10:01:20;21.70;93.00
44461;DHT22;30162;53.642;10.640;2022-09-09T10:03:50;20.80;92.80
44461;DHT22;30162;53.642;10.640;2022-09-09T10:06:16;20.90;92.70
44461;DHT22;30162;53.642;10.640;2022-09-09T10:08:45;21.80;93.10
44461;DHT22;30162;53.642;10.640;2022-09-09T10:18:59;23.50;91.40
44461;DHT22;30162;53.642;10.640;2022-09-09T10:24:18;23.70;86.60
44461;DHT22;30162;53.642;10.640;2022-09-09T10:29:40;23.60;87.50
44461;DHT22;30162;53.642;10.640;2022-09-09T10:37:19;23.30;89.70
44461;DHT22;30162;53.642;10.640;2022-09-09T10:39:48;23.60;90.10
44461;DHT22;30162;53.642;10.640;2022-09-09T10:42:15;23.90;89.70
44461;DHT22;30162;53.642;10.640;2022-09-09T10:44:54;24.30;89.50
44461;DHT22;30162;53.642;10.640;2022-09-09T10:47:29;24.10;87.80
44461;DHT22;30162;53.642;10.640;2022-09-09T10:50:08;24.60;86.30
44461;DHT22;30162;53.642;10.640;2022-09-09T10:52:51;24.80;86.50
44461;DHT22;30162;53.642;10.640;2022-09-09T10:55:20;24.60;82.60
44461;DHT22;30162;53.642;10.640;2022-09-09T10:57:51;24.60;85.40
44461;DHT22;30162;53.642;10.640;2022-09-09T11:00:28;24.60;85.80
44461;DHT22;30162;53.642;10.640;2022-09-09T11:02:56;24.50;85.60
44461;DHT22;30162;53.642;10.640;2022-09-09T11:05:36;24.70;84.60
44461;DHT22;30162;53.642;10.640;2022-09-09T11:08:06;24.70;84.30
44461;DHT22;30162;53.642;10.640;2022-09-09T11:13:07;25.10;82.60
44461;DHT22;30162;53.642;10.640;2022-09-09T11:15:36;24.90;84.20
44461;DHT22;30162;53.642;10.640;2022-09-09T11:18:04;24.80;83.10
44461;DHT22;30162;53.642;10.640;2022-09-09T11:20:31;25.00;83.30
44461;DHT22;30162;53.642;10.640;2022-09-09T11:23:11;24.60;83.20
44461;DHT22;30162;53.642;10.640;2022-09-09T11:25:46;24.60;84.00
44461;DHT22;30162;53.642;10.640;2022-09-09T11:33:33;25.10;82.10
44461;DHT22;30162;53.642;10.640;2022-09-09T11:38:47;25.50;82.00
44461;DHT22;30162;53.642;10.640;2022-09-09T11:41:14;25.60;82.10
44461;DHT22;30162;53.642;10.640;2022-09-09T11:43:52;25.40;84.20
44461;DHT22;30162;53.642;10.640;2022-09-09T11:46:22;25.40;82.70
44461;DHT22;30162;53.642;10.640;2022-09-09T11:48:59;25.60;80.40
44461;DHT22;30162;53.642;10.640;2022-09-09T11:51:27;25.70;81.00
44461;DHT22;30162;53.642;10.640;2022-09-09T11:56:29;25.00;80.40
44461;DHT22;30162;53.642;10.640;2022-09-09T11:59:00;25.00;80.80
44461;DHT22;30162;53.642;10.640;2022-09-09T12:01:36;25.30;80.70
44461;DHT22;30162;53.642;10.640;2022-09-09T12:04:09;25.20;80.90
44461;DHT22;30162;53.642;10.640;2022-09-09T12:06:49;25.50;79.70
44461;DHT22;30162;53.642;10.640;2022-09-09T12:09:18;25.60;79.60
44461;DHT22;30162;53.642;10.640;2022-09-09T12:11:44;25.20;81.10
44461;DHT22;30162;53.642;10.640;2022-09-09T12:14:19;25.20;81.30
44461;DHT22;30162;53.642;10.640;2022-09-09T12:16:46;25.30;80.10
44461;DHT22;30162;53.642;10.640;2022-09-09T12:26:33;24.30;79.30
44461;DHT22;30162;53.642;10.640;2022-09-09T12:31:43;24.80;79.50
44461;DHT22;30162;53.642;10.640;2022-09-09T12:36:36;25.00;79.40
44461;DHT22;30162;53.642;10.640;2022-09-09T12:39:29;25.20;78.50
44461;DHT22;30162;53.642;10.640;2022-09-09T12:41:56;24.80;76.60
44461;DHT22;30162;53.642;10.640;2022-09-09T12:44:25;24.80;78.70
44461;DHT22;30162;53.642;10.640;2022-09-09T12:46:53;24.80;75.80
44461;DHT22;30162;53.642;10.640;2022-09-09T12:49:36;24.90;78.30
44461;DHT22;30162;53.642;10.640;2022-09-09T12:52:04;24.60;76.70
44461;DHT22;30162;53.642;10.640;2022-09-09T12:54:31;24.70;76.80
44461;DHT22;30162;53.642;10.640;2022-09-09T12:56:56;24.60;79.90
44461;DHT22;30162;53.642;10.640;2022-09-09T12:59:23;24.70;80.60
44461;DHT22;30162;53.642;10.640;2022-09-09T13:01:56;24.70;78.10
44461;DHT22;30162;53.642;10.640;2022-09-09T13:04:22;24.60;77.90
44461;DHT22;30162;53.642;10.640;2022-09-09T13:06:47;24.40;80.30
44461;DHT22;30162;53.642;10.640;2022-09-09T13:09:14;24.00;78.60
44461;DHT22;30162;53.642;10.640;2022-09-09T13:11:41;24.10;80.60
44461;DHT22;30162;53.642;10.640;2022-09-09T13:14:18;24.20;83.70
44461;DHT22;30162;53.642;10.640;2022-09-09T13:16:53;24.30;80.60
44461;DHT22;30162;53.642;10.640;2022-09-09T13:19:19;24.10;82.70
44461;DHT22;30162;53.642;10.640;2022-09-09T13:21:46;23.50;81.20
44461;DHT22;30162;53.642;10.640;2022-09-09T13:24:24;23.10;82.50
44461;DHT22;30162;53.642;10.640;2022-09-09T13:26:57;23.10;86.30
44461;DHT22;30162;53.642;10.640;2022-09-09T13:29:23;22.90;86.80
44461;DHT22;30162;53.642;10.640;2022-09-09T13:31:48;22.90;89.60
44461;DHT22;30162;53.642;10.640;2022-09-09T13:34:28;22.70;89.70
44461;DHT22;30162;53.642;10.640;2022-09-09T13:37:00;22.70;89.20
44461;DHT22;30162;53.642;10.640;2022-09-09T13:39:32;22.80;89.30
44461;DHT22;30162;53.642;10.640;2022-09-09T13:41:57;22.60;89.60
44461;DHT22;30162;53.642;10.640;2022-09-09T13:44:24;22.60;90.60
44461;DHT22;30162;53.642;10.640;2022-09-09T13:47:03;22.70;90.40
44461;DHT22;30162;53.642;10.640;2022-09-09T13:49:29;22.70;90.80
44461;DHT22;30162;53.642;10.640;2022-09-09T13:54:51;22.10;91.30
44461;DHT22;30162;53.642;10.640;2022-09-09T13:57:18;22.10;92.10
44461;DHT22;30162;53.642;10.640;2022-09-09T13:59:45;22.10;91.90
44461;DHT22;30162;53.642;10.640;2022-09-09T14:02:11;22.00;92.40
44461;DHT22;30162;53.642;10.640;2022-09-09T14:04:36;21.80;92.30
44461;DHT22;30162;53.642;10.640;2022-09-09T14:07:02;21.70;92.70
44461;DHT22;30162;53.642;10.640;2022-09-09T14:09:27;21.00;93.20
44461;DHT22;30162;53.642;10.640;2022-09-09T14:11:53;20.90;93.50
44461;DHT22;30162;53.642;10.640;2022-09-09T14:14:20;20.90;93.60
44461;DHT22;30162;53.642;10.640;2022-09-09T14:16:45;21.20;93.60
44461;DHT22;30162;53.642;10.640;2022-09-09T14:19:11;21.50;93.40
44461;DHT22;30162;53.642;10.640;2022-09-09T14:21:36;21.60;93.30
44461;DHT22;30162;53.642;10.640;2022-09-09T14:24:02;21.70;93.20
44461;DHT22;30162;53.642;10.640;2022-09-09T14:26:27;21.70;93.10
44461;DHT22;30162;53.642;10.640;2022-09-09T14:28:55;21.80;93.20
44461;DHT22;30162;53.642;10.640;2022-09-09T14:31:21;21.90;93.20
44461;DHT22;30162;53.642;10.640;2022-09-09T14:33:47;21.90;93.10
44461;DHT22;30162;53.642;10.640;2022-09-09T14:36:12;21.90;92.80
44461;DHT22;30162;53.642;10.640;2022-09-09T14:38:38;21.80;92.90
44461;DHT22;30162;53.642;10.640;2022-09-09T14:41:13;21.80;92.80
44461;DHT22;30162;53.642;10.640;2022-09-09T14:43:42;21.70;92.70
44461;DHT22;30162;53.642;10.640;2022-09-09T14:46:08;21.70;93.20
44461;DHT22;30162;53.642;10.640;2022-09-09T14:48:35;21.50;93.40
44461;DHT22;30162;53.642;10.640;2022-09-09T14:51:07;21.70;93.70
44461;DHT22;30162;53.642;10.640;2022-09-09T14:53:33;21.80;93.20
44461;DHT22;30162;53.642;10.640;2022-09-09T14:56:05;21.70;93.00
44461;DHT22;30162;53.642;10.640;2022-09-09T14:58:31;21.80;93.30
44461;DHT22;30162;53.642;10.640;2022-09-09T15:01:01;21.70;92.60
44461;DHT22;30162;53.642;10.640;2022-09-09T15:03:27;21.80;93.00
44461;DHT22;30162;53.642;10.640;2022-09-09T15:05:52;21.80;92.90
44461;DHT22;30162;53.642;10.640;2022-09-09T15:08:18;21.80;93.00
44461;DHT22;30162;53.642;10.640;2022-09-09T15:10:43;21.70;92.80
44461;DHT22;30162;53.642;10.640;2022-09-09T15:13:10;21.50;92.70
44461;DHT22;30162;53.642;10.640;2022-09-09T15:15:35;21.40;93.50
44461;DHT22;30162;53.642;10.640;2022-09-09T15:18:01;21.50;93.30
44461;DHT22;30162;53.642;10.640;2022-09-09T15:20:26;21.20;93.50
44461;DHT22;30162;53.642;10.640;2022-09-09T15:22:51;21.30;93.80
44461;DHT22;30162;53.642;10.640;2022-09-09T15:25:18;21.40;93.50
44461;DHT22;30162;53.642;10.640;2022-09-09T15:27:43;21.30;93.50
44461;DHT22;30162;53.642;10.640;2022-09-09T15:30:09;21.30;94.00
44461;DHT22;30162;53.642;10.640;2022-09-09T15:32:35;21.20;93.60
44461;DHT22;30162;53.642;10.640;2022-09-09T15:35:00;21.20;93.60
44461;DHT22;30162;53.642;10.640;2022-09-09T15:37:26;21.20;93.70
44461;DHT22;30162;53.642;10.640;2022-09-09T15:39:52;21.10;93.30
44461;DHT22;30162;53.642;10.640;2022-09-09T15:42:17;20.90;93.40
44461;DHT22;30162;53.642;10.640;2022-09-09T15:44:42;20.80;94.00
44461;DHT22;30162;53.642;10.640;2022-09-09T15:47:12;20.90;93.90
44461;DHT22;30162;53.642;10.640;2022-09-09T15:49:38;20.90;93.70
44461;DHT22;30162;53.642;10.640;2022-09-09T15:52:03;20.90;93.70
44461;DHT22;30162;53.642;10.640;2022-09-09T15:54:30;20.80;93.70
44461;DHT22;30162;53.642;10.640;2022-09-09T15:56:58;21.00;93.80
44461;DHT22;30162;53.642;10.640;2022-09-09T15:59:25;21.00;93.40
44461;DHT22;30162;53.642;10.640;2022-09-09T16:01:51;21.00;93.00
44461;DHT22;30162;53.642;10.640;2022-09-09T16:04:17;20.70;93.00
44461;DHT22;30162;53.642;10.640;2022-09-09T16:06:49;20.70;93.30
44461;DHT22;30162;53.642;10.640;2022-09-09T16:09:15;20.50;93.50
44461;DHT22;30162;53.642;10.640;2022-09-09T16:11:40;20.70;93.40
44461;DHT22;30162;53.642;10.640;2022-09-09T16:14:06;20.70;93.60
44461;DHT22;30162;53.642;10.640;2022-09-09T16:16:32;20.60;93.60
44461;DHT22;30162;53.642;10.640;2022-09-09T16:18:58;20.60;93.60
44461;DHT22;30162;53.642;10.640;2022-09-09T16:21:31;20.60;93.70
44461;DHT22;30162;53.642;10.640;2022-09-09T16:23:58;20.60;94.00
44461;DHT22;30162;53.642;10.640;2022-09-09T16:26:27;20.50;93.90
44461;DHT22;30162;53.642;10.640;2022-09-09T16:28:53;20.60;93.70
44461;DHT22;30162;53.642;10.640;2022-09-09T16:31:20;20.60;93.80
44461;DHT22;30162;53.642;10.640;2022-09-09T16:33:46;20.60;93.70
44461;DHT22;30162;53.642;10.640;2022-09-09T16:36:13;20.60;93.70
44461;DHT22;30162;53.642;10.640;2022-09-09T16:38:40;20.60;93.50
44461;DHT22;30162;53.642;10.640;2022-09-09T16:41:06;20.60;93.40
44461;DHT22;30162;53.642;10.640;2022-09-09T16:43:32;20.40;93.40
44461;DHT22;30162;53.642;10.640;2022-09-09T16:45:58;20.30;93.80
44461;DHT22;30162;53.642;10.640;2022-09-09T16:48:26;20.40;93.80
44461;DHT22;30162;53.642;10.640;2022-09-09T16:50:51;20.40;93.60
44461;DHT22;30162;53.642;10.640;2022-09-09T16:53:17;20.40;93.70
44461;DHT22;30162;53.642;10.640;2022-09-09T16:55:43;20.40;93.70
44461;DHT22;30162;53.642;10.640;2022-09-09T16:58:12;20.40;94.00
44461;DHT22;30162;53.642;10.640;2022-09-09T17:00:38;20.40;94.00
44461;DHT22;30162;53.642;10.640;2022-09-09T17:03:03;20.50;94.00